sensor_id;sensor_type;location;lat;lon;timestamp;pressure;altitude;pressure_sealevel;temperature;humidity
75640;BME280;64233;51.486;6.332;2022-12-05T00:01:49;101389.97;;;0.70;100.00
75640;BME280;64233;51.486;6.332;2022-12-05T00:04:21;101387.16;;;0.72;100.00
75640;BME280;64233;51.486;6.332;2022-12-05T00:06:53;101382.22;;;0.68;100.00
75640;BME280;64233;51.486;6.332;2022-12-05T00:09:18;101376.75;;;0.70;100.00
75640;BME280;64233;51.486;6.332;2022-12-05T00:11:44;101374.94;;;0.71;100.00
75640;BME280;64233;51.486;6.332;2022-12-05T00:14:10;101375.78;;;0.71;100.00
75640;BME280;64233;51.486;6.332;2022-12-05T00:16:38;101378.41;;;0.71;100.00
75640;BME280;64233;51.486;6.332;2022-12-05T00:19:06;101384.50;;;0.72;100.00
75640;BME280;64233;51.486;6.332;2022-12-05T00:21:34;101380.22;;;0.71;100.00
75640;BME280;64233;51.486;6.332;2022-12-05T00:24:00;101380.03;;;0.72;100.00
75640;BME280;64233;51.486;6.332;2022-12-05T00:26:27;101378.25;;;0.73;100.00
75640;BME280;64233;51.486;6.332;2022-12-05T00:28:53;101375.78;;;0.71;100.00
75640;BME280;64233;51.486;6.332;2022-12-05T00:31:21;101378.25;;;0.73;100.00
75640;BME280;64233;51.486;6.332;2022-12-05T00:33:48;101387.78;;;0.74;100.00
75640;BME280;64233;51.486;6.332;2022-12-05T00:36:19;101381.53;;;0.75;100.00
75640;BME280;64233;51.486;6.332;2022-12-05T00:38:45;101387.78;;;0.74;100.00
75640;BME280;64233;51.486;6.332;2022-12-05T00:41:13;101381.69;;;0.73;100.00
75640;BME280;64233;51.486;6.332;2022-12-05T00:43:39;101381.53;;;0.75;100.00
75640;BME280;64233;51.486;6.332;2022-12-05T00:46:10;101379.06;;;0.73;100.00
75640;BME280;64233;51.486;6.332;2022-12-05T00:48:36;101373.75;;;0.73;100.00
75640;BME280;64233;51.486;6.332;2022-12-05T00:51:08;101374.56;;;0.74;100.00
75640;BME280;64233;51.486;6.332;2022-12-05T00:53:34;101386.00;;;0.74;100.00
75640;BME280;64233;51.486;6.332;2022-12-05T00:56:08;101377.22;;;0.74;100.00
75640;BME280;64233;51.486;6.332;2022-12-05T00:58:34;101385.16;;;0.74;100.00
75640;BME280;64233;51.486;6.332;2022-12-05T01:01:13;101379.88;;;0.74;100.00
75640;BME280;64233;51.486;6.332;2022-12-05T01:03:41;101381.34;;;0.76;100.00
75640;BME280;64233;51.486;6.332;2022-12-05T01:06:07;101382.19;;;0.77;100.00
75640;BME280;64233;51.486;6.332;2022-12-05T01:08:34;101373.59;;;0.75;100.00
75640;BME280;64233;51.486;6.332;2022-12-05T01:10:59;101373.75;;;0.73;100.00
75640;BME280;64233;51.486;6.332;2022-12-05T01:13:26;101371.78;;;0.75;100.00
75640;BME280;64233;51.486;6.332;2022-12-05T01:15:52;101376.91;;;0.77;100.00
75640;BME280;64233;51.486;6.332;2022-12-05T01:18:19;101376.72;;;0.78;100.00
75640;BME280;64233;51.486;6.332;2022-12-05T01:20:45;101374.09;;;0.78;100.00
75640;BME280;64233;51.486;6.332;2022-12-05T01:23:11;101374.25;;;0.77;100.00
75640;BME280;64233;51.486;6.332;2022-12-05T01:25:44;101376.91;;;0.77;100.00
75640;BME280;64233;51.486;6.332;2022-12-05T01:28:10;101374.09;;;0.78;100.00
75640;BME280;64233;51.486;6.332;2022-12-05T01:30:40;101377.72;;;0.77;100.00
75640;BME280;64233;51.486;6.332;2022-12-05T01:33:06;101383.63;;;0.79;100.00
75640;BME280;64233;51.486;6.332;2022-12-05T01:35:33;101387.13;;;0.80;100.00
75640;BME280;64233;51.486;6.332;2022-12-05T01:37:58;101384.50;;;0.80;100.00
75640;BME280;64233;51.486;6.332;2022-12-05T01:40:24;101388.63;;;0.82;100.00
75640;BME280;64233;51.486;6.332;2022-12-05T01:42:49;101388.78;;;0.81;100.00
75640;BME280;64233;51.486;6.332;2022-12-05T01:45:17;101389.59;;;0.81;100.00
75640;BME280;64233;51.486;6.332;2022-12-05T01:47:46;101393.06;;;0.82;100.00
75640;BME280;64233;51.486;6.332;2022-12-05T01:50:11;101393.22;;;0.80;100.00
75640;BME280;64233;51.486;6.332;2022-12-05T01:52:37;101388.63;;;0.82;100.00
75640;BME280;64233;51.486;6.332;2022-12-05T01:55:08;101395.53;;;0.83;100.00
75640;BME280;64233;51.486;6.332;2022-12-05T01:57:35;101402.63;;;0.83;100.00
75640;BME280;64233;51.486;6.332;2022-12-05T02:00:08;101397.34;;;0.83;100.00
75640;BME280;64233;51.486;6.332;2022-12-05T02:02:34;101394.53;;;0.84;100.00
75640;BME280;64233;51.486;6.332;2022-12-05T02:05:09;101398.16;;;0.83;100.00
75640;BME280;64233;51.486;6.332;2022-12-05T02:07:37;101395.53;;;0.83;100.00
75640;BME280;64233;51.486;6.332;2022-12-05T02:10:04;101393.72;;;0.84;100.00
75640;BME280;64233;51.486;6.332;2022-12-05T02:12:30;101407.94;;;0.83;100.00
75640;BME280;64233;51.486;6.332;2022-12-05T02:15:10;101399.00;;;0.84;100.00
75640;BME280;64233;51.486;6.332;2022-12-05T02:24:01;101406.94;;;0.84;100.00
75640;BME280;64233;51.486;6.332;2022-12-05T02:26:59;101398.16;;;0.83;100.00
75640;BME280;64233;51.486;6.332;2022-12-05T02:30:09;101400.81;;;0.83;100.00
75640;BME280;64233;51.486;6.332;2022-12-05T02:38:01;101403.28;;;0.85;100.00
75640;BME280;64233;51.486;6.332;2022-12-05T02:40:48;101399.81;;;0.84;100.00
75640;BME280;64233;51.486;6.332;2022-12-05T02:43:22;101406.75;;;0.85;100.00
75640;BME280;64233;51.486;6.332;2022-12-05T02:45:51;101400.81;;;0.83;100.00
75640;BME280;64233;51.486;6.332;2022-12-05T02:48:19;101409.59;;;0.84;100.00
75640;BME280;64233;51.486;6.332;2022-12-05T02:50:46;101404.28;;;0.84;100.00
75640;BME280;64233;51.486;6.332;2022-12-05T02:53:14;101411.38;;;0.83;100.00
75640;BME280;64233;51.486;6.332;2022-12-05T02:55:42;101410.56;;;0.83;100.00
75640;BME280;64233;51.486;6.332;2022-12-05T02:58:13;101408.75;;;0.83;100.00
75640;BME280;64233;51.486;6.332;2022-12-05T03:00:43;101414.03;;;0.83;100.00
75640;BME280;64233;51.486;6.332;2022-12-05T03:03:13;101408.91;;;0.82;100.00
75640;BME280;64233;51.486;6.332;2022-12-05T03:05:46;101406.63;;;0.79;100.00
75640;BME280;64233;51.486;6.332;2022-12-05T03:08:19;101405.63;;;0.80;100.00
75640;BME280;64233;51.486;6.332;2022-12-05T03:10:46;101409.25;;;0.79;100.00
75640;BME280;64233;51.486;6.332;2022-12-05T03:13:20;101410.91;;;0.80;100.00
75640;BME280;64233;51.486;6.332;2022-12-05T03:15:55;101414.03;;;0.83;100.00
75640;BME280;64233;51.486;6.332;2022-12-05T03:18:25;101409.94;;;0.81;100.00
75640;BME280;64233;51.486;6.332;2022-12-05T03:21:01;101408.09;;;0.81;100.00
75640;BME280;64233;51.486;6.332;2022-12-05T03:23:33;101407.28;;;0.81;100.00
75640;BME280;64233;51.486;6.332;2022-12-05T03:34:20;101394.22;;;0.79;100.00
75640;BME280;64233;51.486;6.332;2022-12-05T03:36:52;101410.75;;;0.81;100.00
75640;BME280;64233;51.486;6.332;2022-12-05T03:39:28;101395.22;;;0.78;100.00
75640;BME280;64233;51.486;6.332;2022-12-05T03:41:58;101400.34;;;0.80;100.00
75640;BME280;64233;51.486;6.332;2022-12-05T03:44:34;101394.22;;;0.79;100.00
75640;BME280;64233;51.486;6.332;2022-12-05T03:47:11;101392.75;;;0.77;100.00
75640;BME280;64233;51.486;6.332;2022-12-05T03:49:47;101393.75;;;0.76;100.00
75640;BME280;64233;51.486;6.332;2022-12-05T03:52:28;101397.88;;;0.78;100.00
75640;BME280;64233;51.486;6.332;2022-12-05T03:54:58;101391.91;;;0.76;100.00
75640;BME280;64233;51.486;6.332;2022-12-05T03:57:28;101398.69;;;0.79;100.00
75640;BME280;64233;51.486;6.332;2022-12-05T03:59:58;101403.97;;;0.79;100.00
75640;BME280;64233;51.486;6.332;2022-12-05T04:05:23;101407.44;;;0.79;100.00
75640;BME280;64233;51.486;6.332;2022-12-05T04:07:55;101410.91;;;0.80;100.00
75640;BME280;64233;51.486;6.332;2022-12-05T04:10:25;101405.97;;;0.77;100.00
75640;BME280;64233;51.486;6.332;2022-12-05T04:12:54;101405.97;;;0.77;100.00
75640;BME280;64233;51.486;6.332;2022-12-05T04:15:25;101410.91;;;0.80;100.00
75640;BME280;64233;51.486;6.332;2022-12-05T04:18:14;101416.38;;;0.78;100.00
75640;BME280;64233;51.486;6.332;2022-12-05T04:20:43;101423.16;;;0.81;100.00
75640;BME280;64233;51.486;6.332;2022-12-05T04:23:28;101421.84;;;0.77;100.00
75640;BME280;64233;51.486;6.332;2022-12-05T04:28:47;101418.38;;;0.68;100.00
75640;BME280;64233;51.486;6.332;2022-12-05T04:31:17;101424.66;;;0.67;100.00
75640;BME280;64233;51.486;6.332;2022-12-05T04:33:48;101422.19;;;0.65;100.00
75640;BME280;64233;51.486;6.332;2022-12-05T04:36:30;101423.00;;;0.66;100.00
75640;BME280;64233;51.486;6.332;2022-12-05T04:39:01;101430.75;;;0.67;100.00
75640;BME280;64233;51.486;6.332;2022-12-05T04:41:39;101421.00;;;0.68;100.00
75640;BME280;64233;51.486;6.332;2022-12-05T04:44:08;101425.47;;;0.67;100.00
75640;BME280;64233;51.486;6.332;2022-12-05T04:46:35;101427.13;;;0.68;100.00
75640;BME280;64233;51.486;6.332;2022-12-05T04:49:06;101429.78;;;0.68;100.00
75640;BME280;64233;51.486;6.332;2022-12-05T04:51:33;101433.41;;;0.67;100.00
75640;BME280;64233;51.486;6.332;2022-12-05T04:54:05;101431.44;;;0.70;100.00
75640;BME280;64233;51.486;6.332;2022-12-05T04:56:34;101427.94;;;0.69;100.00
75640;BME280;64233;51.486;6.332;2022-12-05T04:59:01;101428.63;;;0.71;100.00
75640;BME280;64233;51.486;6.332;2022-12-05T05:01:30;101430.41;;;0.71;100.00
75640;BME280;64233;51.486;6.332;2022-12-05T05:06:39;101430.91;;;0.74;100.00
75640;BME280;64233;51.486;6.332;2022-12-05T05:09:05;101431.91;;;0.73;100.00
75640;BME280;64233;51.486;6.332;2022-12-05T05:11:32;101438.84;;;0.74;100.00
75640;BME280;64233;51.486;6.332;2022-12-05T05:13:59;101436.22;;;0.74;100.00
75640;BME280;64233;51.486;6.332;2022-12-05T05:16:36;101430.91;;;0.74;100.00
75640;BME280;64233;51.486;6.332;2022-12-05T05:19:03;101424.97;;;0.72;100.00
75640;BME280;64233;51.486;6.332;2022-12-05T05:21:32;101433.56;;;0.74;100.00
75640;BME280;64233;51.486;6.332;2022-12-05T05:23:58;101432.72;;;0.74;100.00
75640;BME280;64233;51.486;6.332;2022-12-05T05:26:24;101442.31;;;0.75;100.00
75640;BME280;64233;51.486;6.332;2022-12-05T05:28:50;101435.34;;;0.74;100.00
75640;BME280;64233;51.486;6.332;2022-12-05T05:31:17;101441.66;;;0.73;100.00
75640;BME280;64233;51.486;6.332;2022-12-05T05:33:42;101440.66;;;0.74;100.00
75640;BME280;64233;51.486;6.332;2022-12-05T05:36:10;101440.00;;;0.72;100.00
75640;BME280;64233;51.486;6.332;2022-12-05T05:38:37;101435.34;;;0.74;100.00
75640;BME280;64233;51.486;6.332;2022-12-05T05:41:04;101444.31;;;0.73;100.00
75640;BME280;64233;51.486;6.332;2022-12-05T05:43:29;101437.38;;;0.72;100.00
75640;BME280;64233;51.486;6.332;2022-12-05T05:45:55;101439.03;;;0.73;100.00
75640;BME280;64233;51.486;6.332;2022-12-05T05:48:20;101444.47;;;0.71;100.00
75640;BME280;64233;51.486;6.332;2022-12-05T05:50:45;101441.84;;;0.71;100.00
75640;BME280;64233;51.486;6.332;2022-12-05T05:53:11;101447.28;;;0.70;100.00
75640;BME280;64233;51.486;6.332;2022-12-05T05:55:39;101445.47;;;0.70;100.00
75640;BME280;64233;51.486;6.332;2022-12-05T05:58:05;101447.28;;;0.70;100.00
75640;BME280;64233;51.486;6.332;2022-12-05T06:00:30;101445.47;;;0.70;100.00
75640;BME280;64233;51.486;6.332;2022-12-05T06:02:56;101452.41;;;0.71;100.00
75640;BME280;64233;51.486;6.332;2022-12-05T06:05:21;101449.75;;;0.71;100.00
75640;BME280;64233;51.486;6.332;2022-12-05T06:07:46;101446.28;;;0.71;100.00
75640;BME280;64233;51.486;6.332;2022-12-05T06:10:11;101460.34;;;0.71;100.00
75640;BME280;64233;51.486;6.332;2022-12-05T06:12:37;101454.03;;;0.72;100.00
75640;BME280;64233;51.486;6.332;2022-12-05T06:15:02;101465.63;;;0.71;100.00
75640;BME280;64233;51.486;6.332;2022-12-05T06:17:29;101453.22;;;0.72;100.00
75640;BME280;64233;51.486;6.332;2022-12-05T06:19:54;101456.84;;;0.71;100.00
75640;BME280;64233;51.486;6.332;2022-12-05T06:22:19;101467.25;;;0.72;100.00
75640;BME280;64233;51.486;6.332;2022-12-05T06:24:44;101456.84;;;0.71;100.00
75640;BME280;64233;51.486;6.332;2022-12-05T06:27:10;101465.63;;;0.71;100.00
75640;BME280;64233;51.486;6.332;2022-12-05T06:29:35;101463.97;;;0.70;100.00
75640;BME280;64233;51.486;6.332;2022-12-05T06:32:01;101463.97;;;0.70;100.00
75640;BME280;64233;51.486;6.332;2022-12-05T06:34:26;101463.28;;;0.68;100.00
75640;BME280;64233;51.486;6.332;2022-12-05T06:36:51;101461.50;;;0.68;100.00
75640;BME280;64233;51.486;6.332;2022-12-05T06:39:16;101463.97;;;0.70;100.00
75640;BME280;64233;51.486;6.332;2022-12-05T06:41:42;101468.44;;;0.70;100.00
75640;BME280;64233;51.486;6.332;2022-12-05T06:44:08;101475.69;;;0.67;100.00
75640;BME280;64233;51.486;6.332;2022-12-05T06:46:33;101472.88;;;0.69;100.00
75640;BME280;64233;51.486;6.332;2022-12-05T06:48:59;101473.72;;;0.70;100.00
75640;BME280;64233;51.486;6.332;2022-12-05T06:51:24;101473.03;;;0.67;100.00
75640;BME280;64233;51.486;6.332;2022-12-05T06:53:49;101476.50;;;0.68;100.00
75640;BME280;64233;51.486;6.332;2022-12-05T06:56:17;101478.34;;;0.67;100.00
75640;BME280;64233;51.486;6.332;2022-12-05T06:58:45;101477.34;;;0.68;100.00
75640;BME280;64233;51.486;6.332;2022-12-05T07:01:15;101480.81;;;0.69;100.00
75640;BME280;64233;51.486;6.332;2022-12-05T07:04:00;101483.44;;;0.69;100.00
75640;BME280;64233;51.486;6.332;2022-12-05T07:06:26;101480.81;;;0.69;100.00
75640;BME280;64233;51.486;6.332;2022-12-05T07:08:52;101488.91;;;0.67;100.00
75640;BME280;64233;51.486;6.332;2022-12-05T07:11:17;101489.88;;;0.66;100.00
75640;BME280;64233;51.486;6.332;2022-12-05T07:13:42;101490.91;;;0.65;100.00
75640;BME280;64233;51.486;6.332;2022-12-05T07:16:08;101495.34;;;0.65;100.00
75640;BME280;64233;51.486;6.332;2022-12-05T07:18:40;101497.16;;;0.64;100.00
75640;BME280;64233;51.486;6.332;2022-12-05T07:21:13;101500.63;;;0.65;100.00
75640;BME280;64233;51.486;6.332;2022-12-05T07:23:42;101498.66;;;0.67;100.00
75640;BME280;64233;51.486;6.332;2022-12-05T07:26:10;101505.56;;;0.68;100.00
75640;BME280;64233;51.486;6.332;2022-12-05T07:28:35;101508.22;;;0.68;100.00
75640;BME280;64233;51.486;6.332;2022-12-05T07:31:05;101510.03;;;0.67;100.00
75640;BME280;64233;51.486;6.332;2022-12-05T07:33:30;101512.84;;;0.66;100.00
75640;BME280;64233;51.486;6.332;2022-12-05T07:36:04;101509.22;;;0.67;100.00
75640;BME280;64233;51.486;6.332;2022-12-05T07:38:30;101510.03;;;0.67;100.00
75640;BME280;64233;51.486;6.332;2022-12-05T07:40:56;101510.03;;;0.67;100.00
75640;BME280;64233;51.486;6.332;2022-12-05T07:43:22;101512.69;;;0.67;100.00
75640;BME280;64233;51.486;6.332;2022-12-05T07:45:47;101517.16;;;0.67;100.00
75640;BME280;64233;51.486;6.332;2022-12-05T07:48:12;101513.84;;;0.65;100.00
75640;BME280;64233;51.486;6.332;2022-12-05T07:50:38;101512.69;;;0.67;100.00
75640;BME280;64233;51.486;6.332;2022-12-05T07:53:03;101526.56;;;0.70;100.00
75640;BME280;64233;51.486;6.332;2022-12-05T07:55:28;101523.44;;;0.66;100.00
75640;BME280;64233;51.486;6.332;2022-12-05T07:57:54;101514.69;;;0.65;100.00
75640;BME280;64233;51.486;6.332;2022-12-05T08:00:19;101513.03;;;0.64;100.00
75640;BME280;64233;51.486;6.332;2022-12-05T08:02:45;101519.28;;;0.63;100.00
75640;BME280;64233;51.486;6.332;2022-12-05T08:05:10;101519.13;;;0.65;100.00
75640;BME280;64233;51.486;6.332;2022-12-05T08:07:36;101528.06;;;0.64;100.00
75640;BME280;64233;51.486;6.332;2022-12-05T08:10:01;101527.06;;;0.65;100.00
75640;BME280;64233;51.486;6.332;2022-12-05T08:12:26;101522.91;;;0.62;100.00
75640;BME280;64233;51.486;6.332;2022-12-05T08:14:51;101528.06;;;0.64;100.00
75640;BME280;64233;51.486;6.332;2022-12-05T08:17:17;101532.34;;;0.65;100.00
75640;BME280;64233;51.486;6.332;2022-12-05T08:19:43;101528.38;;;0.61;100.00
75640;BME280;64233;51.486;6.332;2022-12-05T08:22:08;101539.63;;;0.63;100.00
75640;BME280;64233;51.486;6.332;2022-12-05T08:24:33;101549.34;;;0.62;100.00
75640;BME280;64233;51.486;6.332;2022-12-05T08:26:59;101555.31;;;0.64;100.00
75640;BME280;64233;51.486;6.332;2022-12-05T08:29:24;101551.00;;;0.63;100.00
75640;BME280;64233;51.486;6.332;2022-12-05T08:31:50;101557.94;;;0.64;100.00
75640;BME280;64233;51.486;6.332;2022-12-05T08:34:17;101558.75;;;0.65;100.00
75640;BME280;64233;51.486;6.332;2022-12-05T08:36:43;101563.88;;;0.66;100.00
75640;BME280;64233;51.486;6.332;2022-12-05T08:39:11;101563.72;;;0.68;100.00
75640;BME280;64233;51.486;6.332;2022-12-05T08:41:39;101568.53;;;0.64;100.00
75640;BME280;64233;51.486;6.332;2022-12-05T08:44:05;101567.34;;;0.59;100.00
75640;BME280;64233;51.486;6.332;2022-12-05T08:46:34;101569.31;;;0.57;100.00
75640;BME280;64233;51.486;6.332;2022-12-05T08:48:59;101569.66;;;0.54;100.00
75640;BME280;64233;51.486;6.332;2022-12-05T08:51:25;101573.78;;;0.56;100.00
75640;BME280;64233;51.486;6.332;2022-12-05T08:53:50;101572.81;;;0.57;100.00
75640;BME280;64233;51.486;6.332;2022-12-05T08:56:16;101574.78;;;0.55;100.00
75640;BME280;64233;51.486;6.332;2022-12-05T08:58:41;101570.81;;;0.51;100.00
75640;BME280;64233;51.486;6.332;2022-12-05T09:01:11;101569.81;;;0.52;100.00
75640;BME280;64233;51.486;6.332;2022-12-05T09:03:38;101576.78;;;0.53;100.00
75640;BME280;64233;51.486;6.332;2022-12-05T09:06:05;101579.91;;;0.48;100.00
75640;BME280;64233;51.486;6.332;2022-12-05T09:08:31;101591.47;;;0.47;100.00
75640;BME280;64233;51.486;6.332;2022-12-05T09:10:56;101584.34;;;0.48;100.00
75640;BME280;64233;51.486;6.332;2022-12-05T09:13:21;101587.16;;;0.46;100.00
75640;BME280;64233;51.486;6.332;2022-12-05T09:15:47;101586.66;;;0.51;100.00
75640;BME280;64233;51.486;6.332;2022-12-05T09:18:13;101593.44;;;0.45;100.00
75640;BME280;64233;51.486;6.332;2022-12-05T09:20:39;101596.72;;;0.39;100.00
75640;BME280;64233;51.486;6.332;2022-12-05T09:23:04;101594.91;;;0.40;100.00
75640;BME280;64233;51.486;6.332;2022-12-05T09:25:30;101595.91;;;0.39;100.00
75640;BME280;64233;51.486;6.332;2022-12-05T09:27:55;101597.72;;;0.38;100.00
75640;BME280;64233;51.486;6.332;2022-12-05T09:30:20;101605.63;;;0.38;100.00
75640;BME280;64233;51.486;6.332;2022-12-05T09:32:45;101607.97;;;0.33;100.00
75640;BME280;64233;51.486;6.332;2022-12-05T09:35:11;101602.16;;;0.29;100.00
75640;BME280;64233;51.486;6.332;2022-12-05T09:37:36;101602.31;;;0.20;100.00
75640;BME280;64233;51.486;6.332;2022-12-05T09:40:01;101600.81;;;0.17;100.00
75640;BME280;64233;51.486;6.332;2022-12-05T09:42:37;101608.28;;;0.22;100.00
75640;BME280;64233;51.486;6.332;2022-12-05T09:45:17;101606.78;;;0.19;100.00
75640;BME280;64233;51.486;6.332;2022-12-05T09:50:26;101603.94;;;0.12;100.00
75640;BME280;64233;51.486;6.332;2022-12-05T09:55:47;101610.72;;;0.15;100.00
75640;BME280;64233;51.486;6.332;2022-12-05T10:04:21;101609.56;;;0.17;100.00
75640;BME280;64233;51.486;6.332;2022-12-05T10:15:48;101607.13;;;0.24;100.00
75640;BME280;64233;51.486;6.332;2022-12-05T10:18:36;101603.63;;;0.15;100.00
75640;BME280;64233;51.486;6.332;2022-12-05T10:21:11;101610.25;;;0.28;100.00
75640;BME280;64233;51.486;6.332;2022-12-05T10:23:49;101605.44;;;0.15;100.00
75640;BME280;64233;51.486;6.332;2022-12-05T10:26:16;101601.31;;;0.12;100.00
75640;BME280;64233;51.486;6.332;2022-12-05T10:31:20;101606.06;;;0.01;100.00
75640;BME280;64233;51.486;6.332;2022-12-05T10:33:51;101605.38;;;-0.02;100.00
75640;BME280;64233;51.486;6.332;2022-12-05T10:36:20;101613.97;;;0.01;100.00
75640;BME280;64233;51.486;6.332;2022-12-05T10:38:45;101610.38;;;0.02;100.00
75640;BME280;64233;51.486;6.332;2022-12-05T10:41:12;101602.09;;;-0.04;100.00
75640;BME280;64233;51.486;6.332;2022-12-05T10:43:41;101609.34;;;-0.06;100.00
75640;BME280;64233;51.486;6.332;2022-12-05T10:46:14;101613.16;;;0.00;100.00
75640;BME280;64233;51.486;6.332;2022-12-05T10:48:47;101600.47;;;0.04;100.00
75640;BME280;64233;51.486;6.332;2022-12-05T10:51:15;101611.84;;;-0.04;100.00
75640;BME280;64233;51.486;6.332;2022-12-05T10:53:47;101610.16;;;-0.05;100.00
75640;BME280;64233;51.486;6.332;2022-12-05T10:56:37;101612.13;;;-0.07;100.00
75640;BME280;64233;51.486;6.332;2022-12-05T10:59:05;101606.22;;;-0.01;100.00
75640;BME280;64233;51.486;6.332;2022-12-05T11:01:31;101602.59;;;0.00;100.00
75640;BME280;64233;51.486;6.332;2022-12-05T11:03:59;101602.78;;;0.07;100.00
75640;BME280;64233;51.486;6.332;2022-12-05T11:06:30;101613.50;;;0.05;100.00
75640;BME280;64233;51.486;6.332;2022-12-05T11:09:19;101609.06;;;0.14;100.00
75640;BME280;64233;51.486;6.332;2022-12-05T11:12:19;101603.09;;;0.04;100.00
75640;BME280;64233;51.486;6.332;2022-12-05T11:17:40;101595.13;;;-0.13;100.00
75640;BME280;64233;51.486;6.332;2022-12-05T11:20:33;101598.13;;;-0.08;100.00
75640;BME280;64233;51.486;6.332;2022-12-05T11:23:15;101601.72;;;-0.09;100.00
75640;BME280;64233;51.486;6.332;2022-12-05T11:25:41;101595.63;;;-0.09;100.00
75640;BME280;64233;51.486;6.332;2022-12-05T11:33:38;101595.72;;;-0.27;100.00
75640;BME280;64233;51.486;6.332;2022-12-05T11:36:14;101593.09;;;-0.27;100.00
75640;BME280;64233;51.486;6.332;2022-12-05T11:38:41;101599.50;;;-0.30;100.00
75640;BME280;64233;51.486;6.332;2022-12-05T11:51:42;101591.84;;;-0.49;100.00
75640;BME280;64233;51.486;6.332;2022-12-05T11:57:12;101589.84;;;-0.56;100.00
75640;BME280;64233;51.486;6.332;2022-12-05T12:07:43;101581.00;;;-0.46;100.00
75640;BME280;64233;51.486;6.332;2022-12-05T12:27:12;101584.34;;;-0.28;100.00
75640;BME280;64233;51.486;6.332;2022-12-05T12:38:19;101581.28;;;-0.15;100.00
75640;BME280;64233;51.486;6.332;2022-12-05T12:40:53;101584.25;;;-0.02;100.00
75640;BME280;64233;51.486;6.332;2022-12-05T12:43:38;101581.81;;;0.05;100.00
75640;BME280;64233;51.486;6.332;2022-12-05T12:46:33;101576.22;;;0.08;100.00
75640;BME280;64233;51.486;6.332;2022-12-05T12:49:17;101572.75;;;0.08;100.00
75640;BME280;64233;51.486;6.332;2022-12-05T12:51:56;101571.59;;;0.10;100.00
75640;BME280;64233;51.486;6.332;2022-12-05T12:54:49;101569.13;;;0.09;100.00
75640;BME280;64233;51.486;6.332;2022-12-05T12:57:39;101567.13;;;0.11;100.00
75640;BME280;64233;51.486;6.332;2022-12-05T13:03:16;101574.25;;;0.10;100.00
75640;BME280;64233;51.486;6.332;2022-12-05T13:05:51;101568.81;;;0.12;100.00
75640;BME280;64233;51.486;6.332;2022-12-05T13:08:48;101563.34;;;0.13;100.00
75640;BME280;64233;51.486;6.332;2022-12-05T13:11:15;101573.25;;;0.20;100.00
75640;BME280;64233;51.486;6.332;2022-12-05T13:13:46;101567.66;;;0.23;100.00
75640;BME280;64233;51.486;6.332;2022-12-05T13:16:25;101565.00;;;0.23;100.00
75640;BME280;64233;51.486;6.332;2022-12-05T13:18:54;101563.53;;;0.28;100.00
75640;BME280;64233;51.486;6.332;2022-12-05T13:21:20;101559.09;;;0.29;100.00
75640;BME280;64233;51.486;6.332;2022-12-05T13:23:49;101559.41;;;0.26;100.00
75640;BME280;64233;51.486;6.332;2022-12-05T13:26:15;101558.25;;;0.20;100.00
75640;BME280;64233;51.486;6.332;2022-12-05T13:28:58;101562.22;;;0.24;100.00
75640;BME280;64233;51.486;6.332;2022-12-05T13:31:42;101566.16;;;0.28;100.00
75640;BME280;64233;51.486;6.332;2022-12-05T13:34:33;101567.34;;;0.26;100.00
75640;BME280;64233;51.486;6.332;2022-12-05T13:37:24;101566.16;;;0.28;100.00
75640;BME280;64233;51.486;6.332;2022-12-05T13:40:27;101571.81;;;0.33;100.00
75640;BME280;64233;51.486;6.332;2022-12-05T13:43:14;101575.41;;;0.32;100.00
75640;BME280;64233;51.486;6.332;2022-12-05T13:45:41;101571.44;;;0.28;100.00
75640;BME280;64233;51.486;6.332;2022-12-05T13:48:21;101573.78;;;0.31;100.00
75640;BME280;64233;51.486;6.332;2022-12-05T13:51:05;101572.13;;;0.30;100.00
75640;BME280;64233;51.486;6.332;2022-12-05T13:58:57;101577.56;;;0.29;100.00
75640;BME280;64233;51.486;6.332;2022-12-05T14:09:02;101579.22;;;0.22;100.00
75640;BME280;64233;51.486;6.332;2022-12-05T14:11:28;101582.69;;;0.22;100.00
75640;BME280;64233;51.486;6.332;2022-12-05T14:13:53;101578.72;;;0.18;100.00
75640;BME280;64233;51.486;6.332;2022-12-05T14:19:04;101582.31;;;0.17;100.00
75640;BME280;64233;51.486;6.332;2022-12-05T14:21:47;101579.38;;;0.12;100.00
75640;BME280;64233;51.486;6.332;2022-12-05T14:24:27;101582.97;;;0.11;100.00
75640;BME280;64233;51.486;6.332;2022-12-05T14:27:06;101595.69;;;0.07;100.00
75640;BME280;64233;51.486;6.332;2022-12-05T14:32:23;101589.53;;;-0.02;100.00
75640;BME280;64233;51.486;6.332;2022-12-05T14:39:55;101586.59;;;0.10;100.00
75640;BME280;64233;51.486;6.332;2022-12-05T14:42:38;101584.97;;;0.09;100.00
75640;BME280;64233;51.486;6.332;2022-12-05T14:45:29;101588.75;;;0.06;100.00
75640;BME280;64233;51.486;6.332;2022-12-05T14:48:02;101584.28;;;0.07;100.00
75640;BME280;64233;51.486;6.332;2022-12-05T15:01:02;101596.66;;;-0.02;100.00
75640;BME280;64233;51.486;6.332;2022-12-05T15:03:32;101592.34;;;-0.03;100.00
75640;BME280;64233;51.486;6.332;2022-12-05T15:06:00;101600.09;;;-0.02;100.00
75640;BME280;64233;51.486;6.332;2022-12-05T15:08:29;101604.22;;;-0.07;100.00
75640;BME280;64233;51.486;6.332;2022-12-05T15:10:56;101603.06;;;-0.05;100.00
75640;BME280;64233;51.486;6.332;2022-12-05T15:13:23;101607.16;;;-0.10;100.00
75640;BME280;64233;51.486;6.332;2022-12-05T15:16:14;101608.84;;;-0.09;100.00
75640;BME280;64233;51.486;6.332;2022-12-05T15:18:50;101605.38;;;-0.10;100.00
75640;BME280;64233;51.486;6.332;2022-12-05T15:21:23;101601.44;;;-0.06;100.00
75640;BME280;64233;51.486;6.332;2022-12-05T15:23:57;101604.38;;;-0.09;100.00
75640;BME280;64233;51.486;6.332;2022-12-05T15:26:40;101597.09;;;-0.15;100.00
75640;BME280;64233;51.486;6.332;2022-12-05T15:31:49;101598.94;;;-0.07;100.00